Time;durP1;ratioP1;P1;durP2;ratioP2;P2;SDS_P1;SDS_P2;PMS_P1;PMS_P2;Temp;Humidity;BMP_temperature;BMP_pressure;BME280_temperature;BME280_humidity;BME280_pressure;Samples;Min_cycle;Max_cycle;Signal;HPM_P1;HPM_P2
2022/04/27 00:01:31;;;;;;;14.70;10.95;;;;;;;16.12;46.25;93423.59;5006835;28;20034;-84
2022/04/27 00:03:57;;;;;;;14.88;10.10;;;;;;;16.14;46.42;93420.38;4993429;28;20048;-83
2022/04/27 00:06:22;;;;;;;13.52;10.35;;;;;;;16.13;46.53;93421.63;5009415;28;20056;-83
2022/04/27 00:08:47;;;;;;;13.27;9.90;;;;;;;16.13;46.65;93418.91;5026576;28;20034;-86
2022/04/27 00:11:13;;;;;;;13.55;9.10;;;;;;;16.13;46.23;93421.63;5009148;28;20041;-83
2022/04/27 00:13:38;;;;;;;14.90;10.30;;;;;;;16.12;46.39;93418.16;5026243;28;20045;-83
2022/04/27 00:16:04;;;;;;;11.52;9.68;;;;;;;16.13;46.21;93418.91;5006259;28;20448;-87
2022/04/27 00:18:29;;;;;;;13.27;9.65;;;;;;;16.11;46.37;93422.84;5007895;28;20410;-84
2022/04/27 00:20:55;;;;;;;12.25;9.45;;;;;;;16.13;46.32;93408.72;5017745;28;20034;-84
2022/04/27 00:23:21;;;;;;;12.85;8.90;;;;;;;16.11;46.23;93417.41;5009720;28;20100;-84
2022/04/27 00:25:46;;;;;;;14.57;10.13;;;;;;;16.10;46.42;93413.19;5001355;28;20038;-85
2022/04/27 00:28:12;;;;;;;12.20;9.65;;;;;;;16.13;46.13;93416.16;5010313;28;20042;-85
2022/04/27 00:30:37;;;;;;;12.45;9.52;;;;;;;16.12;46.11;93407.25;5020959;28;20089;-84
2022/04/27 00:33:02;;;;;;;13.93;9.43;;;;;;;16.13;46.30;93399.81;5015533;28;20087;-83
2022/04/27 00:35:28;;;;;;;12.65;8.85;;;;;;;16.11;46.50;93411.94;5030318;28;20029;-85
2022/04/27 00:37:56;;;;;;;13.02;8.65;;;;;;;16.10;46.22;93412.44;5014033;28;20038;-84
2022/04/27 00:40:21;;;;;;;11.82;8.57;;;;;;;16.12;46.10;93407.25;5013685;28;20037;-84
2022/04/27 00:42:47;;;;;;;14.30;9.15;;;;;;;16.10;46.34;93415.91;5027780;28;20381;-84
2022/04/27 00:45:12;;;;;;;12.77;9.73;;;;;;;16.10;46.18;93407.00;5013393;28;20412;-85
2022/04/27 00:47:38;;;;;;;11.20;9.07;;;;;;;16.11;46.19;93411.22;5026867;28;20416;-84
2022/04/27 00:50:04;;;;;;;13.48;8.82;;;;;;;16.11;46.44;93411.22;5029538;28;20034;-89
2022/04/27 00:52:30;;;;;;;11.90;8.82;;;;;;;16.11;46.39;93409.22;4997291;28;20053;-84
2022/04/27 00:54:56;;;;;;;12.23;8.82;;;;;;;16.10;46.26;93410.47;5011529;28;20110;-84
2022/04/27 00:57:25;;;;;;;12.13;8.98;;;;;;;16.11;46.26;93408.47;5029372;28;20729;-84
2022/04/27 00:59:50;;;;;;;12.68;9.35;;;;;;;16.10;46.01;93402.28;5025400;28;20049;-84
2022/04/27 01:02:16;;;;;;;10.65;8.82;;;;;;;16.10;46.22;93415.16;5009636;28;20049;-85
2022/04/27 01:04:42;;;;;;;12.82;9.05;;;;;;;16.09;46.09;93400.03;5010336;28;20049;-84
2022/04/27 01:07:07;;;;;;;11.70;8.80;;;;;;;16.10;46.02;93401.53;5025779;28;20059;-84
2022/04/27 01:09:33;;;;;;;10.90;8.75;;;;;;;16.10;45.94;93407.00;5009729;28;20034;-83
2022/04/27 01:11:58;;;;;;;13.02;9.23;;;;;;;16.08;45.94;93410.22;4981063;28;20132;-83
2022/04/27 01:14:24;;;;;;;12.30;9.10;;;;;;;16.08;46.06;93410.22;4992932;28;20051;-86
2022/04/27 01:16:54;;;;;;;11.82;8.98;;;;;;;16.08;45.96;93412.19;5001842;28;20037;-85
2022/04/27 01:19:23;;;;;;;12.05;9.63;;;;;;;16.09;45.86;93410.97;5022027;28;20037;-83
2022/04/27 01:21:48;;;;;;;12.55;8.68;;;;;;;16.09;46.06;93413.69;5029723;28;20053;-84
2022/04/27 01:24:15;;;;;;;11.68;8.40;;;;;;;16.09;46.22;93413.69;5012268;28;20111;-86
2022/04/27 01:26:41;;;;;;;11.30;8.35;;;;;;;16.08;45.88;93420.38;5013238;28;20041;-84
2022/04/27 01:29:06;;;;;;;10.95;8.40;;;;;;;16.08;45.97;93415.66;5010713;28;20041;-84
2022/04/27 01:31:31;;;;;;;11.55;8.05;;;;;;;16.09;46.08;93421.88;5024893;28;20045;-84
2022/04/27 01:33:57;;;;;;;12.00;8.40;;;;;;;16.08;46.17;93421.13;5009577;28;20038;-83
2022/04/27 01:36:23;;;;;;;12.30;9.27;;;;;;;16.07;46.04;93419.63;4995868;28;20030;-83
2022/04/27 01:38:49;;;;;;;10.20;7.72;;;;;;;16.08;46.07;93417.66;5011235;28;20068;-84
2022/04/27 01:41:15;;;;;;;10.73;8.25;;;;;;;16.07;46.20;93418.88;5011319;28;20044;-84
2022/04/27 01:43:40;;;;;;;9.85;8.25;;;;;;;16.07;45.95;93416.91;5040504;28;20038;-84
2022/04/27 01:46:06;;;;;;;10.80;8.13;;;;;;;16.08;45.87;93425.81;5009042;28;20048;-83
2022/04/27 01:48:31;;;;;;;10.50;7.47;;;;;;;16.07;46.13;93418.88;4995816;28;20334;-86
2022/04/27 01:50:57;;;;;;;12.07;7.95;;;;;;;16.07;46.12;93421.63;5029418;28;20041;-84
2022/04/27 01:56:06;;;;;;;10.48;7.63;;;;;;;16.07;46.17;93422.34;5019169;28;20039;-85
2022/04/27 01:58:32;;;;;;;9.57;7.80;;;;;;;16.08;46.22;93423.09;5008961;28;20409;-84
2022/04/27 02:00:57;;;;;;;11.18;8.52;;;;;;;16.06;45.95;93418.13;4995819;28;20037;-84
2022/04/27 02:03:23;;;;;;;9.93;7.88;;;;;;;16.06;45.82;93412.69;5018546;28;20049;-87
2022/04/27 02:05:49;;;;;;;9.25;7.60;;;;;;;16.06;46.18;93412.69;4995572;28;20112;-83
2022/04/27 02:08:14;;;;;;;10.45;7.88;;;;;;;16.07;45.74;93421.63;5036600;28;20045;-83
2022/04/27 02:10:40;;;;;;;10.88;8.20;;;;;;;16.07;46.16;93416.16;5008599;28;20116;-84
2022/04/27 02:13:06;;;;;;;11.20;8.10;;;;;;;16.07;46.04;93411.44;5025765;28;20296;-85
2022/04/27 02:15:32;;;;;;;10.63;7.65;;;;;;;16.06;45.88;93414.66;5027679;28;20037;-83
2022/04/27 02:17:57;;;;;;;10.00;7.57;;;;;;;16.06;45.81;93411.94;5013309;28;20044;-83
2022/04/27 02:20:23;;;;;;;10.55;7.60;;;;;;;16.06;45.75;93417.41;5018926;28;20400;-83
2022/04/27 02:22:52;;;;;;;11.55;8.20;;;;;;;16.06;46.02;93411.94;4995721;28;20038;-84
2022/04/27 02:25:18;;;;;;;8.50;6.75;;;;;;;16.06;45.88;93417.41;5011177;28;20044;-83
2022/04/27 02:27:43;;;;;;;10.98;7.43;;;;;;;16.03;46.16;93410.94;5008219;28;20038;-84
2022/04/27 02:30:10;;;;;;;9.55;7.60;;;;;;;16.05;45.77;93411.19;5004832;28;20059;-83
2022/04/27 02:32:35;;;;;;;10.15;7.13;;;;;;;16.06;46.06;93409.97;4996429;28;20041;-84
2022/04/27 02:35:01;;;;;;;8.93;7.78;;;;;;;16.06;46.17;93414.66;4991141;28;20178;-83
2022/04/27 02:37:26;;;;;;;8.15;7.13;;;;;;;16.06;45.97;93415.41;4989329;28;20030;-84
2022/04/27 02:39:52;;;;;;;9.50;7.63;;;;;;;16.05;45.92;93415.91;4990647;28;20048;-84
2022/04/27 02:42:17;;;;;;;10.85;7.55;;;;;;;16.05;45.96;93416.66;4992939;28;20048;-86
2022/04/27 02:44:44;;;;;;;10.40;8.20;;;;;;;16.05;45.85;93415.91;4994730;28;20041;-84
2022/04/27 02:47:09;;;;;;;9.82;8.13;;;;;;;16.05;45.85;93424.84;4973722;28;20038;-84
2022/04/27 02:52:19;;;;;;;10.25;7.28;;;;;;;16.05;46.29;93421.34;4978757;28;20127;-84
2022/04/27 02:54:44;;;;;;;9.23;7.03;;;;;;;16.05;46.21;93424.09;4996281;28;20498;-84
2022/04/27 02:57:10;;;;;;;10.10;7.55;;;;;;;16.03;45.99;93426.56;4990696;28;20041;-86
2022/04/27 02:59:35;;;;;;;9.68;7.43;;;;;;;16.05;46.01;93433.00;4973291;28;20046;-86
2022/04/27 03:02:01;;;;;;;8.90;7.10;;;;;;;16.04;46.08;93431.53;5006633;28;20080;-84
2022/04/27 03:04:26;;;;;;;8.88;7.10;;;;;;;16.03;46.22;93427.31;4989323;28;20034;-83
2022/04/27 03:06:52;;;;;;;9.73;7.65;;;;;;;16.03;46.05;93435.47;4996486;28;20045;-84
2022/04/27 03:09:20;;;;;;;9.15;7.00;;;;;;;16.05;45.54;93435.00;4993504;28;20037;-84
2022/04/27 03:11:45;;;;;;;10.02;7.18;;;;;;;16.04;45.96;93447.88;5027495;28;20045;-83
2022/04/27 03:14:11;;;;;;;9.05;6.47;;;;;;;16.04;46.11;93445.16;5027051;28;20041;-88
2022/04/27 03:16:36;;;;;;;10.07;7.35;;;;;;;16.04;45.92;93444.41;5007308;28;20563;-84
2022/04/27 03:19:01;;;;;;;8.32;7.07;;;;;;;16.03;46.01;93449.13;4988321;28;20040;-85
2022/04/27 03:21:29;;;;;;;10.82;7.63;;;;;;;16.03;45.98;93451.09;5027096;28;20041;-85
2022/04/27 03:23:55;;;;;;;8.60;6.70;;;;;;;16.02;46.12;93453.09;5011146;28;20037;-85
2022/04/27 03:26:21;;;;;;;8.98;6.70;;;;;;;16.01;46.13;93454.34;5026696;28;20033;-86
2022/04/27 03:28:46;;;;;;;8.02;6.75;;;;;;;16.02;45.96;93444.91;4991123;28;20054;-85
2022/04/27 03:31:12;;;;;;;10.00;7.68;;;;;;;16.03;45.89;93451.84;4988598;28;20051;-84
2022/04/27 03:33:37;;;;;;;11.00;7.90;;;;;;;16.03;45.88;93451.84;5007726;28;20049;-87
2022/04/27 03:36:03;;;;;;;9.30;7.22;;;;;;;16.03;45.81;93454.56;4974481;28;20042;-84
2022/04/27 03:38:28;;;;;;;9.77;7.05;;;;;;;16.03;46.24;93460.03;4974536;28;20038;-88
2022/04/27 03:40:54;;;;;;;13.77;8.25;;;;;;;16.03;46.32;93464.72;4995129;28;20485;-84
2022/04/27 03:43:19;;;;;;;10.10;6.80;;;;;;;16.03;46.17;93456.56;5021819;28;20040;-87
2022/04/27 03:45:44;;;;;;;11.60;7.50;;;;;;;16.04;46.14;93469.69;5026733;28;20083;-84
2022/04/27 03:48:10;;;;;;;8.20;6.72;;;;;;;16.06;46.17;93471.94;5026404;28;20061;-86
2022/04/27 03:50:35;;;;;;;8.95;7.03;;;;;;;16.06;45.87;93469.19;5026743;28;20404;-83
2022/04/27 03:53:01;;;;;;;8.95;7.30;;;;;;;16.06;46.13;93477.38;5007282;28;20042;-83
2022/04/27 03:55:28;;;;;;;12.50;8.93;;;;;;;15.95;45.77;93480.09;5009124;28;20546;-84
2022/04/27 03:57:54;;;;;;;10.77;9.13;;;;;;;15.90;45.64;93475.38;5010085;28;20044;-83
2022/04/27 04:00:19;;;;;;;15.70;11.38;;;;;;;15.85;45.01;93489.72;5025919;28;20037;-83
2022/04/27 04:02:45;;;;;;;16.08;11.75;;;;;;;15.79;45.44;93480.81;4991148;28;20100;-83
2022/04/27 04:05:11;;;;;;;14.38;11.18;;;;;;;15.73;45.60;93495.16;5008372;28;20168;-82
2022/04/27 04:07:37;;;;;;;17.67;12.50;;;;;;;15.69;45.74;93483.75;5011122;28;20069;-83
2022/04/27 04:10:03;;;;;;;15.45;12.73;;;;;;;15.72;45.71;93495.66;5015971;28;20038;-82
2022/04/27 04:12:28;;;;;;;18.48;13.95;;;;;;;15.76;45.46;93493.44;5010015;28;20052;-82
2022/04/27 04:14:57;;;;;;;18.17;13.35;;;;;;;15.80;45.56;93506.84;5026810;28;20037;-82
2022/04/27 04:17:22;;;;;;;18.23;13.18;;;;;;;15.80;45.42;93504.84;5025792;28;20037;-83
2022/04/27 04:19:48;;;;;;;17.08;12.75;;;;;;;15.82;45.75;93502.38;5004536;28;20038;-83
2022/04/27 04:22:13;;;;;;;15.98;11.95;;;;;;;15.85;45.67;93511.53;5018423;28;20029;-84
2022/04/27 04:28:29;;;;;;;19.38;12.60;;;;;;;15.84;45.75;93512.78;5026892;28;20049;-85
2022/04/27 04:30:10;;;;;;;23.02;14.00;;;;;;;15.91;45.63;93510.34;5008171;28;20640;-85
2022/04/27 04:32:39;;;;;;;24.75;15.48;;;;;;;15.96;46.23;93519.75;5025924;28;20030;-88
2022/04/27 04:35:05;;;;;;;28.50;19.42;;;;;;;15.92;45.72;93519.25;5013700;28;20042;-86
2022/04/27 04:37:32;;;;;;;34.58;22.40;;;;;;;15.94;45.80;93520.25;5010075;28;20115;-85
2022/04/27 04:39:57;;;;;;;41.65;17.63;;;;;;;15.93;45.72;93518.75;5026039;28;20418;-85
2022/04/27 04:42:22;;;;;;;40.42;20.73;;;;;;;15.97;45.86;93519.28;5022837;28;20128;-90
2022/04/27 04:44:52;;;;;;;33.20;17.90;;;;;;;16.05;45.76;93522.25;5025105;28;20045;-91
2022/04/27 04:47:21;;;;;;;45.42;25.40;;;;;;;16.04;45.57;93523.47;5027209;28;20040;-92
2022/04/27 04:49:47;;;;;;;40.17;21.00;;;;;;;16.03;45.83;93530.91;4996042;28;20042;-93
2022/04/27 04:52:12;;;;;;;40.05;20.20;;;;;;;16.06;45.63;93538.13;4996172;28;20044;-91
2022/04/27 04:54:38;;;;;;;45.13;22.35;;;;;;;16.02;45.62;93534.88;5027083;28;20116;-87
2022/04/27 04:57:03;;;;;;;41.53;22.73;;;;;;;16.03;45.63;93530.19;5005722;28;20040;-85
2022/04/27 04:59:29;;;;;;;45.60;21.98;;;;;;;16.06;45.56;93545.56;5000349;28;20052;-87
2022/04/27 05:01:55;;;;;;;67.38;27.98;;;;;;;16.02;45.87;93545.06;5008680;28;20212;-88
2022/04/27 05:04:22;;;;;;;62.15;25.35;;;;;;;15.93;45.01;93554.19;5012564;28;20026;-91
2022/04/27 05:06:47;;;;;;;56.15;18.50;;;;;;;15.84;45.10;93557.13;5000736;28;20034;-87
2022/04/27 05:09:13;;;;;;;52.75;22.88;;;;;;;15.82;44.77;93562.31;5013997;28;20044;-84
2022/04/27 05:11:38;;;;;;;86.65;33.78;;;;;;;15.76;44.85;93567.03;5012975;28;20041;-86
2022/04/27 05:14:05;;;;;;;122.05;40.70;;;;;;;15.78;44.83;93559.13;5014056;28;20037;-88
2022/04/27 05:16:32;;;;;;;152.57;45.67;;;;;;;15.81;44.95;93555.38;4999707;28;20033;-87
2022/04/27 05:18:58;;;;;;;147.77;48.42;;;;;;;15.85;45.00;93561.34;5012119;28;20044;-87
2022/04/27 05:21:24;;;;;;;128.55;46.63;;;;;;;15.84;45.23;93564.56;5008407;28;20069;-90
2022/04/27 05:23:49;;;;;;;112.50;42.78;;;;;;;15.86;45.40;93560.13;5009735;28;20092;-87
2022/04/27 05:26:16;;;;;;;127.68;42.97;;;;;;;15.90;45.21;93574.25;5028357;28;20072;-88
2022/04/27 05:34:09;;;;;;;86.38;34.03;;;;;;;15.88;45.48;93579.47;5028152;28;20052;-90
2022/04/27 05:36:35;;;;;;;80.50;34.22;;;;;;;15.91;45.37;93583.94;5014108;28;20771;-88
2022/04/27 05:39:00;;;;;;;86.68;34.25;;;;;;;15.94;45.33;93577.50;4993340;28;20061;-88
2022/04/27 05:41:26;;;;;;;92.10;38.35;;;;;;;15.91;45.52;93586.66;5002812;28;20095;-88
2022/04/27 05:43:53;;;;;;;104.85;41.72;;;;;;;15.95;45.27;93591.88;5011378;28;20033;-87
2022/04/27 05:46:18;;;;;;;90.45;40.38;;;;;;;15.96;45.14;93590.66;4994264;28;20042;-94
2022/04/27 05:48:45;;;;;;;182.05;53.28;;;;;;;15.97;45.18;93594.88;5011820;28;20040;-87
2022/04/27 05:51:11;;;;;;;131.35;48.35;;;;;;;15.96;45.56;93607.00;5012095;28;20033;-90
2022/04/27 05:53:39;;;;;;;115.78;50.20;;;;;;;15.97;45.35;93606.53;5012459;28;20088;-90
2022/04/27 05:56:05;;;;;;;130.20;50.10;;;;;;;15.98;45.31;93613.47;5010158;28;20038;-85
2022/04/27 05:58:31;;;;;;;112.55;49.65;;;;;;;15.96;45.32;93609.75;4994937;28;20034;-83
2022/04/27 06:00:56;;;;;;;118.90;58.30;;;;;;;15.93;45.36;93602.53;5030910;28;20041;-87
2022/04/27 06:03:27;;;;;;;140.05;60.58;;;;;;;15.99;45.44;93611.50;4999120;28;20056;-90
2022/04/27 06:05:52;;;;;;;158.35;72.93;;;;;;;15.99;45.37;93606.03;4998384;28;20508;-91
2022/04/27 06:08:18;;;;;;;125.05;61.45;;;;;;;16.01;44.97;93607.03;5020645;28;20125;-88
2022/04/27 06:10:43;;;;;;;163.00;75.00;;;;;;;16.06;45.13;93611.75;5006197;28;20081;-92
2022/04/27 06:13:09;;;;;;;134.50;68.82;;;;;;;16.08;45.08;93612.00;4992521;28;20034;-93
2022/04/27 06:15:34;;;;;;;157.25;77.05;;;;;;;16.13;44.96;93620.69;4962856;28;20270;-89
2022/04/27 06:18:10;;;;;;;147.55;73.43;;;;;;;16.14;45.17;93617.47;4963401;28;20041;-91
2022/04/27 06:20:36;;;;;;;173.10;82.25;;;;;;;16.13;45.37;93621.44;4961838;28;20146;-90
2022/04/27 06:23:02;;;;;;;174.80;76.75;;;;;;;16.11;45.26;93624.66;4966853;28;20128;-90
2022/04/27 06:25:27;;;;;;;165.75;82.50;;;;;;;16.11;45.29;93619.22;4955855;28;20405;-93
2022/04/27 06:27:53;;;;;;;162.50;79.80;;;;;;;16.12;45.31;93625.41;4979382;28;20045;-91
2022/04/27 06:30:18;;;;;;;153.82;80.25;;;;;;;16.11;45.33;93626.63;4962347;28;20038;-87
2022/04/27 06:32:45;;;;;;;161.52;81.07;;;;;;;16.10;45.20;93625.16;4978979;28;20056;-91
2022/04/27 06:35:13;;;;;;;167.85;83.40;;;;;;;16.09;45.51;93627.13;4951732;28;20046;-91
2022/04/27 06:37:40;;;;;;;165.05;76.47;;;;;;;16.17;45.11;93627.41;4957177;28;20045;-91
2022/04/27 06:40:06;;;;;;;170.63;80.50;;;;;;;16.11;45.11;93626.63;4995306;28;20049;-89
2022/04/27 06:42:31;;;;;;;173.38;83.40;;;;;;;16.16;45.31;93636.84;4976207;28;20038;-89
2022/04/27 06:45:15;;;;;;;183.85;86.85;;;;;;;16.10;45.25;93636.81;4994430;28;20703;-90
2022/04/27 06:47:41;;;;;;;162.95;77.35;;;;;;;16.15;45.54;93642.78;5048893;28;20048;-90
2022/04/27 06:50:07;;;;;;;168.73;82.90;;;;;;;16.13;45.51;93646.00;5016094;28;20029;-90
2022/04/27 06:52:42;;;;;;;176.63;83.28;;;;;;;16.15;45.38;93648.97;5015977;28;20044;-93
2022/04/27 06:55:10;;;;;;;172.15;89.50;;;;;;;16.14;45.59;93652.94;5022327;28;20041;-93
2022/04/27 06:57:36;;;;;;;226.55;102.18;;;;;;;16.11;45.75;93651.94;5043172;28;20043;-89
2022/04/27 07:00:08;;;;;;;231.13;109.43;;;;;;;16.14;45.11;93649.47;5037773;28;20041;-92
2022/04/27 07:02:34;;;;;;;266.75;114.82;;;;;;;16.15;45.56;93659.13;5035210;28;20068;-90
2022/04/27 07:05:01;;;;;;;235.35;105.55;;;;;;;16.15;45.68;93656.41;5009702;28;20095;-91
2022/04/27 07:07:30;;;;;;;253.50;110.55;;;;;;;16.16;45.81;93649.72;4996428;28;20037;-90
2022/04/27 07:09:55;;;;;;;262.38;121.28;;;;;;;16.17;45.62;93653.94;5009299;28;20064;-90
2022/04/27 07:12:21;;;;;;;296.52;125.15;;;;;;;16.17;45.73;93657.41;5014264;28;20030;-89
2022/04/27 07:14:48;;;;;;;303.60;129.40;;;;;;;16.19;45.63;93657.69;5015653;28;20424;-91
2022/04/27 07:17:14;;;;;;;294.33;131.20;;;;;;;16.19;45.76;93656.94;5045980;28;20044;-90
2022/04/27 07:19:39;;;;;;;293.15;136.73;;;;;;;16.18;45.25;93663.63;4996321;28;20046;-91
2022/04/27 07:22:05;;;;;;;306.33;131.38;;;;;;;16.19;45.54;93659.66;5010454;28;20029;-91
2022/04/27 07:24:32;;;;;;;256.60;129.77;;;;;;;16.18;45.19;93669.81;5010333;28;20034;-92
2022/04/27 07:26:58;;;;;;;280.77;131.80;;;;;;;16.16;45.78;93663.34;4996843;28;20061;-91
2022/04/27 07:29:23;;;;;;;273.55;130.52;;;;;;;16.18;45.23;93669.81;4995482;28;20166;-90
2022/04/27 07:31:49;;;;;;;258.17;128.30;;;;;;;16.17;45.36;93668.31;5028581;28;20447;-91
2022/04/27 07:34:15;;;;;;;273.25;132.15;;;;;;;16.19;45.54;93662.38;5006459;28;20041;-94
2022/04/27 07:36:43;;;;;;;287.25;130.40;;;;;;;16.24;45.32;93681.47;4994405;28;20060;-92
2022/04/27 07:39:08;;;;;;;275.23;138.35;;;;;;;16.22;45.36;93683.97;5000032;28;20040;-90
2022/04/27 07:41:34;;;;;;;310.38;151.68;;;;;;;16.22;45.52;93683.22;5011022;28;20032;-91
2022/04/27 07:43:59;;;;;;;283.27;137.30;;;;;;;16.21;45.44;93690.66;5024268;28;20049;-91
2022/04/27 07:46:25;;;;;;;411.25;183.60;;;;;;;16.25;45.50;93684.94;5000562;28;20040;-86
2022/04/27 07:48:51;;;;;;;398.83;198.32;;;;;;;16.25;45.50;93695.88;5033300;28;20040;-93
2022/04/27 07:51:17;;;;;;;397.92;177.45;;;;;;;16.25;45.57;93702.06;5001470;28;20053;-87
2022/04/27 07:53:42;;;;;;;358.13;179.18;;;;;;;16.24;45.11;93697.84;5013331;28;20455;-91
2022/04/27 07:56:09;;;;;;;333.88;171.45;;;;;;;16.24;45.08;93699.84;5025252;28;20069;-88
2022/04/27 07:58:34;;;;;;;402.42;200.65;;;;;;;16.27;45.18;93702.31;5020720;28;20044;-89
2022/04/27 08:01:01;;;;;;;351.65;191.68;;;;;;;16.26;45.37;93705.53;5002593;28;20042;-92
2022/04/27 08:03:26;;;;;;;353.73;180.80;;;;;;;16.27;45.31;93712.50;5026491;28;20036;-87
2022/04/27 08:05:52;;;;;;;341.65;171.50;;;;;;;16.29;44.96;93716.22;5008332;28;20034;-89
2022/04/27 08:08:17;;;;;;;339.83;177.25;;;;;;;16.29;45.39;93713.50;5013524;28;20068;-91
2022/04/27 08:10:43;;;;;;;350.85;169.05;;;;;;;16.28;45.68;93722.16;5019261;28;20157;-89
2022/04/27 08:13:08;;;;;;;314.13;152.95;;;;;;;16.27;45.39;93726.13;5026266;28;20084;-92
2022/04/27 08:15:34;;;;;;;287.00;136.82;;;;;;;16.27;45.24;93723.41;5025783;28;20148;-93
2022/04/27 08:18:01;;;;;;;330.42;152.50;;;;;;;16.29;45.69;93738.03;5013787;28;20041;-89
2022/04/27 08:23:14;;;;;;;188.20;82.20;;;;;;;16.19;45.16;93728.59;5033180;28;20048;-89
2022/04/27 08:25:40;;;;;;;307.92;113.18;;;;;;;16.18;45.53;93734.53;5015554;28;20049;-90
2022/04/27 08:28:06;;;;;;;242.93;110.88;;;;;;;16.20;45.86;93734.78;5021320;28;20107;-88
2022/04/27 08:30:34;;;;;;;250.65;118.05;;;;;;;16.21;45.86;93741.75;5019954;28;20041;-90
2022/04/27 08:33:00;;;;;;;226.80;112.20;;;;;;;16.23;45.50;93736.53;5013478;28;20050;-89
2022/04/27 08:35:27;;;;;;;181.73;99.20;;;;;;;16.19;45.69;93730.56;5005929;28;20042;-88
2022/04/27 08:37:54;;;;;;;227.77;113.03;;;;;;;16.21;45.60;93736.28;5003021;28;20057;-91
2022/04/27 08:40:20;;;;;;;206.27;100.32;;;;;;;16.22;45.74;93737.78;4998710;28;20041;-87
2022/04/27 08:42:53;;;;;;;238.82;116.32;;;;;;;16.21;45.95;93736.28;5029208;28;20501;-91
2022/04/27 08:45:19;;;;;;;185.10;91.97;;;;;;;16.21;45.84;93737.03;4987697;28;20041;-94
2022/04/27 08:47:45;;;;;;;211.68;106.15;;;;;;;16.22;45.88;93735.06;5027656;28;20107;-91
2022/04/27 08:50:17;;;;;;;208.48;96.88;;;;;;;16.23;45.79;93733.81;5012541;28;20052;-92
2022/04/27 08:52:43;;;;;;;206.18;88.75;;;;;;;16.26;45.85;93733.56;4984636;28;20041;-92
2022/04/27 08:55:10;;;;;;;189.45;93.55;;;;;;;16.25;45.85;93737.53;5009188;28;20589;-90
2022/04/27 08:57:35;;;;;;;194.73;90.80;;;;;;;16.26;45.98;93747.19;5026658;28;20045;-93
2022/04/27 09:00:06;;;;;;;189.45;98.35;;;;;;;16.26;46.11;93749.19;4992352;28;20072;-88
2022/04/27 09:02:32;;;;;;;187.88;89.82;;;;;;;16.26;46.04;93747.19;5006438;28;20043;-90
2022/04/27 09:05:18;;;;;;;177.82;91.65;;;;;;;16.26;45.81;93741.75;5012895;28;20054;-89
2022/04/27 09:07:52;;;;;;;89.47;47.60;;;;;;;16.19;44.87;93761.31;5000028;28;20569;-88
2022/04/27 09:10:18;;;;;;;63.20;28.85;;;;;;;16.10;44.57;93759.53;4997568;28;20048;-93
2022/04/27 09:12:48;;;;;;;50.95;25.05;;;;;;;16.00;44.56;93762.94;5016087;28;20050;-90
2022/04/27 09:15:14;;;;;;;71.43;33.38;;;;;;;15.95;44.81;93758.19;5011534;28;20416;-95
2022/04/27 09:23:25;;;;;;;49.83;21.65;;;;;;;15.85;44.79;93771.25;5009389;28;20103;-86
2022/04/27 09:25:53;;;;;;;71.20;27.85;;;;;;;15.85;45.16;93776.72;5017154;28;20054;-90
2022/04/27 09:28:29;;;;;;;64.68;28.45;;;;;;;15.76;44.99;93766.00;4996973;28;20046;-91
2022/04/27 09:30:55;;;;;;;88.43;30.95;;;;;;;15.79;45.58;93769.75;4985372;28;20034;-92
2022/04/27 09:33:37;;;;;;;83.43;30.63;;;;;;;15.72;45.67;93768.19;5008625;28;20030;-90
2022/04/27 09:36:22;;;;;;;62.45;21.80;;;;;;;15.69;45.91;93769.91;4998221;28;20037;-92
2022/04/27 09:38:47;;;;;;;86.78;27.77;;;;;;;15.71;45.87;93775.63;5021358;28;20041;-91
2022/04/27 09:41:13;;;;;;;76.60;29.77;;;;;;;15.74;46.01;93761.03;5015622;28;20100;-88
2022/04/27 09:43:46;;;;;;;168.77;44.15;;;;;;;15.76;45.95;93766.00;5013666;28;20173;-89
2022/04/27 09:46:22;;;;;;;158.15;45.97;;;;;;;15.82;46.03;93768.75;5010553;28;20038;-87
2022/04/27 09:49:11;;;;;;;164.88;54.00;;;;;;;15.87;46.06;93778.94;5017985;28;20046;-86
2022/04/27 09:51:52;;;;;;;144.18;52.30;;;;;;;15.90;45.99;93780.72;5026660;28;20044;-93
2022/04/27 09:54:20;;;;;;;;;;;;;;;15.96;46.07;93784.97;5012835;28;20065;-88
2022/04/27 09:56:57;;;;;;;126.85;53.30;;;;;;;15.94;46.29;93783.97;5016442;28;19929;-91
2022/04/27 09:59:29;;;;;;;131.43;55.17;;;;;;;15.96;46.03;93779.53;5014768;28;20041;-90
2022/04/27 10:01:57;;;;;;;163.82;65.25;;;;;;;16.01;46.03;93778.06;4999985;28;20033;-90
2022/04/27 10:04:25;;;;;;;167.77;76.72;;;;;;;16.01;46.00;93778.06;5009810;28;20040;-89
2022/04/27 10:06:51;;;;;;;162.70;71.25;;;;;;;15.98;46.01;93782.50;5002152;28;20091;-92
2022/04/27 10:09:17;;;;;;;171.25;76.97;;;;;;;16.01;46.10;93787.00;4991248;28;20045;-88
2022/04/27 10:11:43;;;;;;;180.63;78.15;;;;;;;16.03;46.02;93787.25;5008807;28;20034;-89
2022/04/27 10:14:09;;;;;;;160.98;76.60;;;;;;;16.03;45.99;93783.75;4988787;28;20045;-86
2022/04/27 10:16:35;;;;;;;144.00;70.57;;;;;;;16.04;46.33;93785.25;5028565;28;20120;-85
2022/04/27 10:19:00;;;;;;;145.88;72.88;;;;;;;16.06;45.89;93797.19;5017172;28;20025;-89
2022/04/27 10:21:39;;;;;;;142.57;70.07;;;;;;;16.06;45.90;93793.69;5019162;28;20061;-87
2022/04/27 10:24:07;;;;;;;156.23;73.80;;;;;;;16.04;46.05;93793.44;5004810;28;20041;-87
2022/04/27 10:26:32;;;;;;;138.40;69.65;;;;;;;16.07;45.90;93787.03;5025606;28;20045;-87
2022/04/27 10:29:03;;;;;;;130.35;69.60;;;;;;;16.07;45.81;93795.94;4995463;28;20037;-91
2022/04/27 10:31:47;;;;;;;151.18;74.68;;;;;;;16.09;45.55;93792.72;4997673;28;20034;-94
2022/04/27 10:34:21;;;;;;;139.23;70.70;;;;;;;16.11;45.51;93799.19;5040894;28;20041;-85
2022/04/27 10:36:48;;;;;;;138.45;67.45;;;;;;;16.13;46.16;93796.00;5039557;28;20101;-86
2022/04/27 10:39:16;;;;;;;136.38;70.45;;;;;;;16.12;45.74;93799.94;5026982;28;20100;-89
2022/04/27 10:42:04;;;;;;;145.00;71.28;;;;;;;16.11;45.72;93796.47;5030419;28;20049;-86
2022/04/27 10:44:49;;;;;;;154.68;75.95;;;;;;;16.17;45.88;93803.94;5012734;28;20037;-91
2022/04/27 10:47:15;;;;;;;134.95;73.43;;;;;;;16.16;45.95;93802.47;5024454;28;20068;-84
2022/04/27 10:49:41;;;;;;;138.02;71.55;;;;;;;16.17;45.57;93804.69;5012854;28;20033;-88
2022/04/27 10:52:08;;;;;;;131.40;69.10;;;;;;;16.19;45.38;93794.06;4998202;28;20370;-88
2022/04/27 10:54:39;;;;;;;146.18;71.88;;;;;;;16.17;45.90;93793.03;4986967;28;20037;-92
2022/04/27 10:57:19;;;;;;;153.05;79.28;;;;;;;16.17;45.30;93807.44;5009861;28;20046;-89
2022/04/27 10:59:45;;;;;;;155.53;77.93;;;;;;;16.18;45.49;93808.16;5030980;28;20095;-84
2022/04/27 11:02:35;;;;;;;184.98;103.00;;;;;;;16.22;45.48;93814.91;5031416;28;20053;-88
2022/04/27 11:05:04;;;;;;;221.70;120.93;;;;;;;16.21;45.44;93815.38;5026337;28;20540;-85
2022/04/27 11:07:45;;;;;;;192.10;112.85;;;;;;;16.20;45.88;93811.16;5014515;28;20056;-87
2022/04/27 11:10:16;;;;;;;162.40;92.80;;;;;;;16.24;45.44;93817.16;5012306;28;20038;-86
2022/04/27 11:12:46;;;;;;;193.50;103.57;;;;;;;16.23;45.77;93815.66;5013099;28;20484;-93
2022/04/27 11:15:13;;;;;;;182.40;101.80;;;;;;;16.23;45.76;93824.59;5028303;28;20041;-86
2022/04/27 11:17:40;;;;;;;180.00;99.53;;;;;;;16.24;45.30;93817.88;4994908;28;20034;-86
2022/04/27 11:20:28;;;;;;;184.68;101.03;;;;;;;16.24;45.77;93815.13;4994521;28;20054;-86
2022/04/27 11:22:54;;;;;;;176.95;95.45;;;;;;;16.26;45.35;93815.41;5015630;28;20037;-86
2022/04/27 11:25:25;;;;;;;188.15;98.93;;;;;;;16.29;45.62;93819.13;5000966;28;20041;-89
2022/04/27 11:27:51;;;;;;;;;;;;;;;16.29;45.34;93816.41;4999720;28;20041;-91
2022/04/27 11:30:17;;;;;;;196.73;103.63;;;;;;;16.26;45.35;93814.66;5017005;28;19921;-88
2022/04/27 11:32:45;;;;;;;210.50;105.35;;;;;;;16.27;45.91;93813.41;5000034;28;20098;-89
2022/04/27 11:35:11;;;;;;;211.20;110.93;;;;;;;16.28;45.63;93820.38;5009227;28;20046;-86
2022/04/27 11:37:37;;;;;;;223.23;113.03;;;;;;;16.29;45.71;93822.63;4977148;28;20045;-86
2022/04/27 11:40:17;;;;;;;219.23;108.43;;;;;;;16.29;45.48;93822.63;5023690;28;20497;-87